Grandin, Missouri
Current Conditions -  °F | °C
As of 2:28 PM on Sunday 25 Jan 2015 (Local Time) from KPOF Reporting Station
Heavy Rain Heavy Rain  
Wind Chill: 38°   Ceiling: 2900
Heat Index: 45°   Visibility: 2mi
Dew Point: 41°   Wind: 15mph
Humidity: 86%   Direction: 270°W
Pressure: 29.63"   Gusts: NA
Location:  36.83°N, 90.82°W
Report Text: KPOF 252028Z AUTO 27013KT 2SM +RA BR FEW022 BKN029 OVC037 07/05 A2963 RMK AO2 RAB07 P0020 T00720050
Loading
Personal Weather Stations






























Interactive Weather Map New forecast layout! Learn more

10-Day Weather Forecast

Advertisements
Track Severe Weather on mobile